Time;durP1;ratioP1;P1;durP2;ratioP2;P2;SDS_P1;SDS_P2;PMS_P1;PMS_P2;Temp;Humidity;BMP_temperature;BMP_pressure;BME280_temperature;BME280_humidity;BME280_pressure;Samples;Min_cycle;Max_cycle;Signal;HPM_P1;HPM_P2
2021/10/06 00:00:22;;;;;;;5.37;2.77;;;10.80;1.00;;;;;;4975292;28;20298;-64
2021/10/06 00:02:49;;;;;;;7.70;2.50;;;10.70;1.00;;;;;;4975464;28;20212;-63
2021/10/06 00:05:17;;;;;;;8.27;2.73;;;10.70;1.00;;;;;;4974311;28;20732;-64
2021/10/06 00:07:44;;;;;;;8.83;2.77;;;10.70;1.00;;;;;;4975167;28;20219;-64
2021/10/06 00:10:11;;;;;;;6.23;2.50;;;10.70;1.00;;;;;;4974769;28;20295;-64
2021/10/06 00:12:38;;;;;;;5.90;2.63;;;10.70;1.00;;;;;;4975268;28;20208;-63
2021/10/06 00:15:07;;;;;;;6.00;2.93;;;10.70;1.00;;;;;;4974506;28;20674;-64
2021/10/06 00:17:34;;;;;;;11.43;3.03;;;10.60;1.00;;;;;;4975121;28;20255;-65
2021/10/06 00:20:01;;;;;;;5.37;2.60;;;10.60;1.00;;;;;;4974903;28;20239;-63
2021/10/06 00:22:29;;;;;;;5.07;2.93;;;10.60;1.00;;;;;;4974807;28;20569;-63
2021/10/06 00:24:55;;;;;;;6.67;2.80;;;10.50;1.00;;;;;;4974423;28;20211;-64
2021/10/06 00:27:22;;;;;;;5.90;2.80;;;10.50;1.00;;;;;;4974828;28;20204;-64
2021/10/06 00:29:49;;;;;;;7.57;3.00;;;10.50;1.00;;;;;;4974524;28;20235;-64
2021/10/06 00:32:16;;;;;;;10.10;3.00;;;10.40;1.00;;;;;;4974532;28;20208;-64
2021/10/06 00:34:42;;;;;;;5.77;2.33;;;10.40;1.00;;;;;;4974262;28;20254;-64
2021/10/06 00:37:09;;;;;;;3.63;2.27;;;10.40;1.00;;;;;;4974502;28;20205;-64
2021/10/06 00:39:37;;;;;;;6.80;3.27;;;10.30;1.00;;;;;;4974546;28;20231;-64
2021/10/06 00:42:04;;;;;;;9.13;2.87;;;10.30;1.00;;;;;;4974478;28;20223;-63
2021/10/06 00:44:34;;;;;;;6.40;2.40;;;10.30;1.00;;;;;;4974080;28;20275;-65
2021/10/06 00:47:01;;;;;;;6.50;2.40;;;10.30;1.00;;;;;;4974381;28;20223;-64
2021/10/06 00:49:27;;;;;;;6.20;2.40;;;10.20;1.00;;;;;;4974223;28;20243;-64
2021/10/06 00:51:54;;;;;;;7.50;2.50;;;10.20;1.00;;;;;;4974070;28;20215;-63
2021/10/06 00:54:21;;;;;;;6.77;2.37;;;10.10;1.00;;;;;;4974392;28;20259;-65
2021/10/06 00:56:49;;;;;;;3.67;2.30;;;10.10;1.00;;;;;;4973953;28;20258;-64
2021/10/06 00:59:15;;;;;;;6.07;2.47;;;10.10;1.00;;;;;;4974121;28;20232;-64
2021/10/06 01:01:42;;;;;;;5.77;2.10;;;10.00;1.00;;;;;;4974091;28;20259;-64
2021/10/06 01:04:09;;;;;;;4.73;2.10;;;10.00;1.00;;;;;;4974115;28;20229;-64
2021/10/06 01:06:35;;;;;;;6.07;2.20;;;10.00;1.00;;;;;;4973829;28;20266;-64
2021/10/06 01:09:03;;;;;;;10.90;2.80;;;10.00;1.00;;;;;;4973719;28;20716;-64
2021/10/06 01:11:30;;;;;;;5.27;2.03;;;10.00;1.00;;;;;;4974126;28;20208;-64
2021/10/06 01:13:58;;;;;;;10.50;2.47;;;10.00;1.00;;;;;;4973962;28;20215;-65
2021/10/06 01:16:25;;;;;;;5.43;2.20;;;10.00;1.00;;;;;;4973645;28;20216;-65
2021/10/06 01:18:52;;;;;;;4.03;2.50;;;10.00;1.00;;;;;;4972927;28;20663;-64
2021/10/06 01:21:20;;;;;;;6.10;2.03;;;10.00;1.00;;;;;;4973963;28;20208;-64
2021/10/06 01:23:49;;;;;;;4.83;2.00;;;10.00;1.00;;;;;;4973904;28;20323;-64
2021/10/06 01:26:18;;;;;;;3.63;2.30;;;10.00;1.00;;;;;;4973413;28;20270;-65
2021/10/06 01:28:45;;;;;;;5.07;2.33;;;10.00;1.00;;;;;;4973561;28;20803;-64
2021/10/06 01:31:12;;;;;;;5.83;2.00;;;10.00;1.00;;;;;;4973515;28;20318;-63
2021/10/06 01:33:39;;;;;;;6.03;2.00;;;10.00;1.00;;;;;;4973625;28;20271;-64
2021/10/06 01:36:05;;;;;;;6.17;2.27;;;10.00;1.00;;;;;;4973546;28;20211;-63
2021/10/06 01:38:33;;;;;;;8.40;2.40;;;10.00;1.00;;;;;;4974248;28;20263;-64
2021/10/06 01:41:00;;;;;;;5.20;2.30;;;10.00;1.00;;;;;;4973444;28;20274;-64
2021/10/06 01:43:27;;;;;;;7.43;2.47;;;10.00;1.00;;;;;;4973328;28;20211;-63
2021/10/06 01:45:54;;;;;;;5.43;1.90;;;10.00;1.00;;;;;;4973117;28;20572;-64
2021/10/06 01:48:21;;;;;;;8.00;2.33;;;10.00;99.90;;;;;;4973096;28;20219;-64
2021/10/06 01:50:47;;;;;;;5.70;2.27;;;10.00;99.90;;;;;;4973508;28;20258;-64
2021/10/06 01:53:15;;;;;;;8.20;2.67;;;10.00;99.90;;;;;;4973333;28;20256;-63
2021/10/06 01:55:44;;;;;;;6.40;2.30;;;10.00;1.00;;;;;;4972980;28;20208;-62
2021/10/06 01:58:14;;;;;;;7.17;2.47;;;9.90;1.00;;;;;;4973199;28;20212;-64
2021/10/06 02:00:42;;;;;;;8.33;2.10;;;10.00;99.90;;;;;;4972939;28;20680;-64
2021/10/06 02:03:08;;;;;;;10.13;2.80;;;10.00;99.90;;;;;;4973211;28;20271;-65
2021/10/06 02:05:35;;;;;;;8.37;2.37;;;10.00;99.90;;;;;;4973104;28;20212;-63
2021/10/06 02:08:02;;;;;;;9.43;2.37;;;9.90;99.90;;;;;;4973278;28;20255;-63
2021/10/06 02:10:29;;;;;;;6.30;2.33;;;9.90;99.90;;;;;;4972986;28;20232;-63
2021/10/06 02:12:59;;;;;;;8.53;2.40;;;10.00;99.90;;;;;;4973120;28;20628;-64
2021/10/06 02:15:26;;;;;;;8.37;2.67;;;10.00;99.90;;;;;;4973185;28;20229;-64
2021/10/06 02:17:53;;;;;;;7.50;2.17;;;10.00;99.90;;;;;;4973146;28;20204;-65
2021/10/06 02:20:20;;;;;;;8.93;2.30;;;10.00;99.90;;;;;;4973015;28;20228;-64
2021/10/06 02:22:47;;;;;;;7.50;2.30;;;10.00;99.90;;;;;;4973026;28;20255;-65
2021/10/06 02:25:14;;;;;;;12.07;2.63;;;10.00;99.90;;;;;;4972721;28;20215;-64
2021/10/06 02:27:41;;;;;;;4.33;2.23;;;10.00;99.90;;;;;;4972729;28;20216;-64
2021/10/06 02:30:10;;;;;;;6.20;2.40;;;10.00;99.90;;;;;;4976070;28;20697;-64
2021/10/06 02:32:36;;;;;;;10.10;2.47;;;10.00;99.90;;;;;;4977019;28;20208;-63
2021/10/06 02:35:04;;;;;;;13.60;2.97;;;10.00;99.90;;;;;;4976405;28;20213;-64
2021/10/06 02:37:30;;;;;;;7.97;2.60;;;10.00;99.90;;;;;;4976825;28;20211;-64
2021/10/06 02:39:57;;;;;;;7.27;2.60;;;10.00;99.90;;;;;;4976501;28;20239;-64
2021/10/06 02:42:24;;;;;;;9.87;3.03;;;10.00;99.90;;;;;;4976414;28;20283;-63
2021/10/06 02:44:51;;;;;;;6.73;3.00;;;9.90;99.90;;;;;;4976344;28;20263;-63
2021/10/06 02:47:18;;;;;;;5.40;2.40;;;9.90;99.90;;;;;;4976698;28;20623;-65
2021/10/06 02:49:45;;;;;;;4.60;2.20;;;9.90;99.90;;;;;;4976627;28;20289;-64
2021/10/06 02:52:12;;;;;;;6.17;2.40;;;10.00;99.90;;;;;;4976430;28;20760;-64
2021/10/06 02:54:38;;;;;;;11.10;2.87;;;10.00;99.90;;;;;;4976231;28;20216;-63
2021/10/06 02:57:05;;;;;;;12.60;2.97;;;10.10;99.90;;;;;;4976358;28;20209;-62
2021/10/06 02:59:32;;;;;;;6.70;2.63;;;10.10;99.90;;;;;;4976701;28;20634;-65
2021/10/06 03:01:58;;;;;;;7.33;3.00;;;10.10;99.90;;;;;;4976585;28;20216;-63
2021/10/06 03:04:27;;;;;;;9.37;2.80;;;10.20;91.90;;;;;;4976423;28;20204;-63
2021/10/06 03:06:54;;;;;;;7.53;3.03;;;10.20;1.00;;;;;;4975909;28;20216;-64
2021/10/06 03:09:20;;;;;;;8.53;3.20;;;10.20;1.00;;;;;;4975879;28;20235;-64
2021/10/06 03:11:47;;;;;;;6.40;2.43;;;10.30;1.00;;;;;;4976373;28;20213;-63
2021/10/06 03:14:14;;;;;;;7.37;2.93;;;10.40;99.90;;;;;;4976113;28;20563;-65
2021/10/06 03:16:41;;;;;;;6.53;2.60;;;10.40;99.90;;;;;;4975923;28;20204;-63
2021/10/06 03:19:07;;;;;;;9.73;2.63;;;10.40;39.50;;;;;;4975954;28;20225;-64
2021/10/06 03:21:35;;;;;;;5.03;2.60;;;10.40;1.00;;;;;;4976045;28;20211;-63
2021/10/06 03:24:02;;;;;;;5.90;2.83;;;10.40;1.00;;;;;;4975937;28;20622;-64
2021/10/06 03:26:28;;;;;;;6.13;2.70;;;10.40;24.80;;;;;;4975688;28;20215;-64
2021/10/06 03:28:55;;;;;;;6.23;2.20;;;10.30;12.00;;;;;;4975890;28;20646;-64
2021/10/06 03:31:22;;;;;;;12.53;3.00;;;10.30;1.00;;;;;;4976010;28;20215;-63
2021/10/06 03:33:48;;;;;;;10.67;2.93;;;10.30;99.90;;;;;;4975981;28;20208;-65
2021/10/06 03:36:15;;;;;;;7.07;2.60;;;10.30;99.90;;;;;;4975155;28;20614;-65
2021/10/06 03:38:43;;;;;;;7.63;2.43;;;10.30;29.50;;;;;;4975360;28;20228;-64
2021/10/06 03:41:10;;;;;;;6.67;2.50;;;10.30;99.90;;;;;;4975043;28;20270;-64
2021/10/06 03:43:37;;;;;;;5.60;2.20;;;10.30;99.90;;;;;;4975867;28;20245;-65
2021/10/06 03:46:04;;;;;;;5.33;2.27;;;10.30;99.90;;;;;;4975393;28;20216;-64
2021/10/06 03:48:30;;;;;;;9.17;2.33;;;10.40;99.90;;;;;;4975404;28;20231;-63
2021/10/06 03:50:57;;;;;;;10.20;3.93;;;10.40;99.90;;;;;;4975194;28;20303;-65
2021/10/06 03:53:23;;;;;;;8.30;2.90;;;10.40;1.00;;;;;;4975529;28;20220;-65
2021/10/06 03:55:51;;;;;;;7.57;2.53;;;10.40;15.90;;;;;;4975008;28;20674;-65
2021/10/06 03:58:18;;;;;;;6.87;2.20;;;10.40;78.10;;;;;;4975376;28;20208;-65
2021/10/06 04:00:45;;;;;;;8.90;2.40;;;10.50;1.00;;;;;;4975215;28;20204;-65
2021/10/06 04:03:12;;;;;;;8.70;3.17;;;10.50;10.80;;;;;;4975240;28;20208;-65
2021/10/06 04:05:39;;;;;;;6.77;2.30;;;10.50;99.90;;;;;;4974529;28;20255;-65
2021/10/06 04:08:07;;;;;;;12.03;2.67;;;10.50;1.00;;;;;;4975351;28;20287;-65
2021/10/06 04:10:34;;;;;;;6.57;2.37;;;10.50;99.90;;;;;;4974934;28;20234;-66
2021/10/06 04:13:04;;;;;;;7.17;2.40;;;10.50;1.00;;;;;;4975464;28;20623;-65
2021/10/06 04:15:31;;;;;;;7.43;2.20;;;10.60;99.90;;;;;;4974694;28;20681;-65
2021/10/06 04:17:57;;;;;;;7.50;2.37;;;10.60;96.80;;;;;;4972725;28;20295;-65
2021/10/06 04:20:24;;;;;;;4.77;2.00;;;10.60;99.90;;;;;;4973873;28;20767;-65
2021/10/06 04:22:51;;;;;;;10.97;2.90;;;10.60;1.00;;;;;;4974555;28;20236;-65
2021/10/06 04:25:18;;;;;;;5.60;1.90;;;10.60;99.90;;;;;;4974453;28;20830;-65
2021/10/06 04:27:44;;;;;;;7.30;2.10;;;10.60;1.00;;;;;;4974914;28;20215;-64
2021/10/06 04:30:13;;;;;;;6.37;2.33;;;10.60;99.90;;;;;;4974337;28;20232;-62
2021/10/06 04:32:40;;;;;;;5.83;2.20;;;10.60;1.00;;;;;;4965411;28;21070;-62
2021/10/06 04:35:07;;;;;;;6.63;2.47;;;10.60;99.90;;;;;;4993258;28;20294;-62
2021/10/06 04:37:34;;;;;;;6.93;2.17;;;10.60;88.80;;;;;;4993867;28;20293;-61
2021/10/06 04:40:01;;;;;;;5.33;2.27;;;10.70;99.90;;;;;;4993846;28;20226;-62
2021/10/06 04:42:28;;;;;;;7.83;2.80;;;10.70;17.70;;;;;;4989376;28;20220;-63
2021/10/06 04:44:54;;;;;;;9.60;2.63;;;10.70;1.00;;;;;;4974285;28;20208;-65
2021/10/06 04:47:22;;;;;;;5.77;2.10;;;10.70;1.00;;;;;;4974008;28;20208;-65
2021/10/06 04:49:49;;;;;;;7.17;2.07;;;10.70;99.90;;;;;;4974252;28;20291;-63
2021/10/06 04:52:16;;;;;;;6.07;2.10;;;10.70;27.30;;;;;;4972741;28;20677;-63
2021/10/06 04:54:42;;;;;;;6.20;2.00;;;10.60;99.90;;;;;;4973566;28;20274;-64
2021/10/06 04:57:09;;;;;;;8.07;2.33;;;10.70;1.00;;;;;;4974089;28;20212;-63
2021/10/06 04:59:36;;;;;;;5.37;2.47;;;10.70;99.90;;;;;;4973789;28;20783;-64
2021/10/06 05:02:03;;;;;;;5.70;2.50;;;10.70;99.90;;;;;;4974205;28;20267;-63
2021/10/06 05:04:30;;;;;;;9.73;1.90;;;10.70;99.90;;;;;;4973633;28;20212;-63
2021/10/06 05:06:57;;;;;;;7.90;2.40;;;10.60;99.90;;;;;;4974108;28;20259;-64
2021/10/06 05:09:24;;;;;;;7.80;2.37;;;10.60;1.00;;;;;;4973731;28;20283;-64
2021/10/06 05:11:51;;;;;;;6.07;1.93;;;10.60;1.00;;;;;;4973893;28;20258;-64
2021/10/06 05:14:17;;;;;;;8.63;2.23;;;10.60;1.00;;;;;;4973011;28;20212;-64
2021/10/06 05:16:44;;;;;;;7.93;2.10;;;10.60;99.90;;;;;;4973921;28;20208;-63
2021/10/06 05:19:12;;;;;;;10.57;2.20;;;10.60;96.60;;;;;;4973761;28;20282;-61
2021/10/06 05:21:40;;;;;;;6.60;2.50;;;10.60;1.00;;;;;;4973690;28;20251;-62
2021/10/06 05:24:07;;;;;;;7.43;2.13;;;10.60;99.90;;;;;;4973387;28;20665;-62
2021/10/06 05:26:33;;;;;;;6.80;2.00;;;10.60;1.00;;;;;;4973328;28;20240;-63
2021/10/06 05:29:00;;;;;;;5.87;2.10;;;10.60;99.90;;;;;;4973305;28;20770;-63
2021/10/06 05:31:27;;;;;;;5.47;2.37;;;10.60;69.00;;;;;;4989261;28;20231;-68
2021/10/06 05:33:54;;;;;;;4.83;2.17;;;10.60;99.90;;;;;;4973288;28;20204;-67
2021/10/06 05:36:20;;;;;;;8.10;2.60;;;10.70;99.90;;;;;;4972581;28;20207;-65
2021/10/06 05:38:48;;;;;;;8.37;2.20;;;10.60;99.90;;;;;;4965842;28;20235;-65
2021/10/06 05:41:15;;;;;;;6.60;2.07;;;10.60;99.90;;;;;;4959298;28;20291;-64
2021/10/06 05:43:42;;;;;;;7.03;1.97;;;10.70;1.00;;;;;;4976269;28;20215;-64
2021/10/06 05:46:09;;;;;;;5.63;2.20;;;10.70;99.90;;;;;;4973293;28;20212;-64
2021/10/06 05:48:35;;;;;;;6.37;2.20;;;10.70;1.00;;;;;;4972703;28;20228;-64
2021/10/06 05:51:02;;;;;;;8.70;2.07;;;10.70;1.00;;;;;;4980581;28;20232;-65
2021/10/06 05:53:29;;;;;;;6.60;2.33;;;10.70;1.00;;;;;;4992279;28;20207;-64
2021/10/06 05:55:57;;;;;;;5.70;2.00;;;10.70;14.20;;;;;;4990896;28;20287;-65
2021/10/06 05:58:23;;;;;;;7.67;1.90;;;10.70;99.90;;;;;;4992111;28;20583;-63
2021/10/06 06:00:50;;;;;;;6.00;1.80;;;10.70;10.10;;;;;;4991897;28;20632;-64
2021/10/06 06:03:17;;;;;;;4.43;1.47;;;10.70;99.90;;;;;;4991840;28;20211;-64
2021/10/06 06:05:44;;;;;;;4.47;1.70;;;10.70;24.30;;;;;;4991752;28;20262;-64
2021/10/06 06:08:11;;;;;;;9.40;2.00;;;10.70;1.00;;;;;;4991803;28;20298;-65
2021/10/06 06:10:38;;;;;;;7.30;2.30;;;10.70;1.00;;;;;;4991610;28;20223;-65
2021/10/06 06:13:06;;;;;;;5.67;1.70;;;10.70;1.00;;;;;;4992061;28;20211;-65
2021/10/06 06:15:32;;;;;;;8.67;1.90;;;10.70;1.00;;;;;;4991654;28;20219;-65
2021/10/06 06:17:59;;;;;;;6.30;2.13;;;10.70;99.90;;;;;;4991591;28;20701;-65
2021/10/06 06:20:26;;;;;;;7.63;2.70;;;10.80;1.00;;;;;;4991549;28;20227;-64
2021/10/06 06:22:54;;;;;;;6.13;2.03;;;10.70;1.00;;;;;;4991973;28;20219;-65
2021/10/06 06:25:21;;;;;;;5.17;2.07;;;10.80;1.00;;;;;;4991344;28;20208;-66
2021/10/06 06:27:48;;;;;;;6.23;2.00;;;10.80;1.00;;;;;;4991853;28;20208;-66
2021/10/06 06:30:16;;;;;;;7.77;1.97;;;10.80;99.90;;;;;;4991228;28;20231;-66
2021/10/06 06:32:43;;;;;;;5.77;1.63;;;10.80;99.90;;;;;;4991861;28;20211;-66
2021/10/06 06:35:10;;;;;;;8.53;2.40;;;10.90;1.00;;;;;;4991156;28;20219;-64
2021/10/06 06:37:37;;;;;;;4.80;2.03;;;10.90;99.90;;;;;;4991270;28;20208;-65
2021/10/06 06:40:11;;;;;;;6.70;2.10;;;11.00;99.90;;;;;;4976722;28;20251;-65
2021/10/06 06:42:38;;;;;;;7.67;2.00;;;11.00;99.90;;;;;;4972555;28;20335;-64
2021/10/06 06:45:06;;;;;;;7.07;2.27;;;11.00;99.90;;;;;;4972115;28;20295;-64
2021/10/06 06:47:35;;;;;;;5.60;2.17;;;10.90;1.00;;;;;;4972160;28;20209;-63
2021/10/06 06:50:01;;;;;;;5.63;1.97;;;10.90;99.90;;;;;;4971853;28;20723;-65
2021/10/06 06:52:28;;;;;;;5.47;2.13;;;10.90;41.20;;;;;;4972092;28;20823;-67
2021/10/06 06:54:55;;;;;;;7.77;2.50;;;10.90;99.90;;;;;;4972056;28;20264;-65
2021/10/06 06:57:23;;;;;;;7.67;2.73;;;10.90;1.00;;;;;;4972278;28;20639;-63
2021/10/06 06:59:49;;;;;;;6.77;2.30;;;10.80;1.00;;;;;;4971656;28;20239;-64
2021/10/06 07:02:16;;;;;;;4.73;2.40;;;10.70;1.00;;;;;;4972101;28;20205;-65
2021/10/06 07:04:44;;;;;;;6.20;2.70;;;10.70;1.00;;;;;;4971660;28;20208;-64
2021/10/06 07:07:13;;;;;;;6.97;2.30;;;10.70;1.00;;;;;;4972465;28;20212;-63
2021/10/06 07:09:47;;;;;;;9.37;2.90;;;10.70;10.10;;;;;;4972146;28;20322;-63
2021/10/06 07:12:13;;;;;;;6.07;2.43;;;10.70;99.90;;;;;;4972011;28;20251;-63
2021/10/06 07:14:40;;;;;;;5.77;2.37;;;10.60;99.90;;;;;;4971957;28;20282;-62
2021/10/06 07:17:07;;;;;;;8.13;3.00;;;10.50;1.00;;;;;;4974817;28;20304;-65
2021/10/06 07:19:34;;;;;;;9.90;2.80;;;10.40;99.90;;;;;;4975265;28;20232;-66
2021/10/06 07:22:02;;;;;;;6.23;2.83;;;10.30;99.90;;;;;;4975643;28;20236;-66
2021/10/06 07:24:28;;;;;;;8.10;3.00;;;10.30;99.90;;;;;;4975541;28;20235;-65
2021/10/06 07:26:55;;;;;;;10.60;2.70;;;10.30;1.00;;;;;;4988032;28;20676;-66
2021/10/06 07:29:22;;;;;;;5.93;2.80;;;10.20;1.00;;;;;;4994422;28;20232;-66
2021/10/06 07:31:48;;;;;;;5.07;2.20;;;10.20;1.00;;;;;;4994508;28;20282;-65
2021/10/06 07:34:15;;;;;;;5.90;3.00;;;10.20;1.00;;;;;;4994664;28;20266;-64
2021/10/06 07:36:42;;;;;;;6.20;2.63;;;10.20;1.00;;;;;;4994494;28;20223;-65
2021/10/06 07:39:11;;;;;;;8.67;2.80;;;10.20;1.00;;;;;;4994619;28;20642;-64
2021/10/06 07:41:38;;;;;;;6.20;2.60;;;10.20;99.90;;;;;;4994507;28;20217;-65
2021/10/06 07:44:05;;;;;;;6.20;2.97;;;10.20;99.90;;;;;;4994452;28;20208;-65
2021/10/06 07:46:33;;;;;;;9.63;2.50;;;10.20;1.00;;;;;;4993602;28;20219;-63
2021/10/06 07:48:59;;;;;;;5.20;2.00;;;10.20;99.90;;;;;;4994524;28;20231;-64
2021/10/06 07:51:26;;;;;;;5.70;1.73;;;10.20;1.00;;;;;;4994224;28;20286;-64
2021/10/06 07:53:53;;;;;;;8.13;2.50;;;10.20;99.90;;;;;;4994256;28;20214;-64
2021/10/06 07:56:23;;;;;;;5.97;2.20;;;10.10;1.00;;;;;;4993898;28;20211;-65
2021/10/06 07:58:49;;;;;;;5.73;2.00;;;10.20;99.90;;;;;;4993908;28;20319;-64
2021/10/06 08:01:16;;;;;;;7.50;2.40;;;10.20;1.00;;;;;;4994288;28;20215;-64
2021/10/06 08:03:43;;;;;;;6.57;2.20;;;10.20;1.00;;;;;;4994051;28;20217;-64
2021/10/06 08:06:10;;;;;;;5.70;2.20;;;10.20;79.10;;;;;;4993959;28;20212;-67
2021/10/06 08:08:36;;;;;;;6.60;2.23;;;10.20;99.90;;;;;;4994035;28;20278;-63
2021/10/06 08:11:03;;;;;;;4.70;2.00;;;10.30;99.90;;;;;;4993661;28;20231;-65
2021/10/06 08:13:31;;;;;;;8.30;2.70;;;10.40;99.90;;;;;;4993831;28;20238;-65
2021/10/06 08:15:59;;;;;;;6.40;2.30;;;10.50;1.00;;;;;;4994410;28;20203;-64
2021/10/06 08:18:26;;;;;;;3.87;2.13;;;10.60;99.50;;;;;;4993792;28;20275;-65
2021/10/06 08:20:54;;;;;;;4.60;2.10;;;10.60;1.00;;;;;;4993645;28;20631;-66
2021/10/06 08:23:21;;;;;;;5.17;2.53;;;10.70;1.00;;;;;;4993746;28;20208;-65
2021/10/06 08:25:48;;;;;;;5.47;2.40;;;10.70;56.10;;;;;;4993303;28;20207;-67
2021/10/06 08:28:15;;;;;;;7.67;2.53;;;10.70;99.90;;;;;;4993003;28;20647;-65
2021/10/06 08:30:44;;;;;;;7.27;2.67;;;10.70;99.90;;;;;;4993209;28;20269;-64
2021/10/06 08:33:11;;;;;;;4.90;2.00;;;10.70;99.90;;;;;;4993701;28;20591;-67
2021/10/06 08:35:38;;;;;;;6.07;2.40;;;10.70;99.90;;;;;;4988958;28;20208;-67
2021/10/06 08:38:05;;;;;;;5.40;2.30;;;10.60;99.90;;;;;;4974719;28;20212;-67
2021/10/06 08:40:32;;;;;;;5.40;2.57;;;10.60;99.90;;;;;;4973210;28;20232;-65
2021/10/06 08:43:00;;;;;;;4.00;2.43;;;10.60;1.00;;;;;;4974273;28;20282;-65
2021/10/06 08:45:27;;;;;;;6.70;2.40;;;10.60;99.90;;;;;;4973639;28;20212;-66
2021/10/06 08:47:56;;;;;;;7.83;2.47;;;10.50;99.90;;;;;;4974129;28;20216;-66
2021/10/06 08:50:24;;;;;;;5.20;2.00;;;10.40;99.40;;;;;;4972639;28;20232;-66
2021/10/06 08:52:51;;;;;;;6.33;2.53;;;10.40;1.00;;;;;;4973684;28;20207;-64
2021/10/06 08:55:21;;;;;;;5.33;2.10;;;10.40;1.00;;;;;;4973340;28;20212;-65
2021/10/06 08:57:47;;;;;;;4.10;2.30;;;10.40;99.90;;;;;;4973935;28;20209;-65
2021/10/06 09:00:14;;;;;;;7.70;2.50;;;10.50;1.00;;;;;;4973633;28;20228;-66
2021/10/06 09:02:43;;;;;;;4.43;1.90;;;10.50;99.90;;;;;;4973672;28;20267;-64
2021/10/06 09:05:12;;;;;;;2.63;2.10;;;10.50;1.00;;;;;;4973364;28;20676;-66
2021/10/06 09:07:54;;;;;;;5.73;2.07;;;10.50;1.00;;;;;;4973489;28;20676;-64
2021/10/06 09:10:22;;;;;;;4.50;1.80;;;10.60;29.30;;;;;;4973325;28;20315;-66
2021/10/06 09:12:59;;;;;;;5.70;2.60;;;10.60;1.00;;;;;;4973416;28;20232;-68
2021/10/06 09:15:27;;;;;;;7.47;1.97;;;10.60;1.00;;;;;;4973636;28;20219;-67
2021/10/06 09:17:57;;;;;;;5.00;2.20;;;10.70;1.00;;;;;;4973665;28;20216;-67
2021/10/06 09:20:35;;;;;;;6.50;2.50;;;10.60;99.90;;;;;;4973736;28;20238;-67
2021/10/06 09:23:03;;;;;;;7.30;2.47;;;10.60;60.00;;;;;;4974086;28;20688;-66
2021/10/06 09:25:36;;;;;;;4.63;2.43;;;10.60;1.00;;;;;;4973819;28;20676;-66
2021/10/06 09:28:07;;;;;;;7.13;2.50;;;10.70;99.90;;;;;;4973222;28;20286;-67
2021/10/06 09:30:34;;;;;;;4.50;2.27;;;10.60;80.60;;;;;;4972502;28;20247;-66
2021/10/06 09:33:03;;;;;;;6.00;2.40;;;10.60;1.00;;;;;;4973370;28;20629;-67
2021/10/06 09:35:29;;;;;;;5.37;2.60;;;10.70;99.90;;;;;;4973449;28;20297;-66
2021/10/06 09:37:58;;;;;;;5.90;2.07;;;10.70;99.90;;;;;;4972846;28;20208;-66
2021/10/06 09:40:27;;;;;;;6.03;2.70;;;10.70;99.90;;;;;;4973535;28;20220;-67
2021/10/06 09:42:56;;;;;;;5.10;2.00;;;10.70;1.00;;;;;;4973104;28;20204;-64
2021/10/06 09:45:26;;;;;;;4.67;2.43;;;10.80;13.60;;;;;;4972663;28;20299;-64
2021/10/06 09:48:01;;;;;;;6.60;2.27;;;10.60;36.50;;;;;;4972945;28;20744;-65
2021/10/06 09:50:28;;;;;;;7.97;2.57;;;10.50;99.90;;;;;;4972581;28;20338;-65
2021/10/06 09:52:55;;;;;;;9.60;2.77;;;10.50;99.90;;;;;;4972959;28;20236;-65
2021/10/06 09:55:23;;;;;;;4.90;2.47;;;10.50;99.90;;;;;;4972699;28;20234;-63
2021/10/06 09:57:55;;;;;;;8.57;2.73;;;10.50;1.00;;;;;;4973671;28;20204;-65
2021/10/06 10:00:22;;;;;;;9.47;3.07;;;10.50;1.00;;;;;;4972589;28;20224;-64
2021/10/06 10:02:50;;;;;;;6.67;2.93;;;10.50;1.00;;;;;;4972810;28;20642;-66
2021/10/06 10:05:17;;;;;;;6.90;3.00;;;10.50;1.00;;;;;;4972484;28;20208;-64
2021/10/06 10:07:44;;;;;;;7.07;3.10;;;10.60;1.00;;;;;;4972498;28;20731;-64
2021/10/06 10:10:12;;;;;;;8.70;3.20;;;10.60;99.90;;;;;;4972187;28;20231;-64
2021/10/06 10:12:40;;;;;;;5.13;2.43;;;10.70;1.00;;;;;;4972687;28;20236;-65
2021/10/06 10:15:08;;;;;;;8.67;2.67;;;10.70;1.00;;;;;;4972511;28;20212;-64
2021/10/06 10:17:35;;;;;;;7.43;3.10;;;10.80;1.00;;;;;;4972575;28;20683;-64
2021/10/06 10:20:07;;;;;;;4.87;2.70;;;10.90;1.00;;;;;;4972239;28;20738;-64
2021/10/06 10:22:37;;;;;;;7.07;2.70;;;10.90;99.90;;;;;;4972571;28;20200;-64
2021/10/06 10:25:17;;;;;;;7.33;2.70;;;10.90;1.00;;;;;;4972365;28;20212;-63
2021/10/06 10:28:00;;;;;;;6.37;2.70;;;10.90;99.90;;;;;;4972608;28;20215;-63
2021/10/06 10:30:28;;;;;;;8.20;2.70;;;10.90;1.00;;;;;;4972174;28;20659;-63
2021/10/06 10:32:54;;;;;;;6.13;1.70;;;10.90;1.00;;;;;;4972416;28;20227;-66
2021/10/06 10:35:39;;;;;;;4.20;1.90;;;10.90;1.00;;;;;;4972042;28;20267;-66
2021/10/06 10:38:11;;;;;;;2.10;1.80;;;10.90;99.90;;;;;;4972584;28;20212;-65
2021/10/06 10:40:42;;;;;;;3.10;1.77;;;10.90;99.90;;;;;;4972266;28;20211;-65
2021/10/06 10:43:11;;;;;;;2.23;1.90;;;10.90;1.00;;;;;;4972452;28;20204;-68
2021/10/06 10:45:41;;;;;;;3.57;1.70;;;11.00;1.00;;;;;;4971764;28;20212;-66
2021/10/06 10:48:09;;;;;;;2.33;1.77;;;10.90;1.00;;;;;;4972660;28;20588;-65
2021/10/06 10:51:03;;;;;;;4.53;1.60;;;10.90;1.00;;;;;;4974371;28;20259;-66
2021/10/06 10:53:57;;;;;;;4.43;1.60;;;10.80;1.00;;;;;;4961173;28;20212;-64
2021/10/06 10:56:43;;;;;;;3.20;1.60;;;10.80;1.00;;;;;;4975759;28;20295;-62
2021/10/06 10:59:13;;;;;;;3.33;1.70;;;10.90;1.00;;;;;;4965929;28;20255;-63
2021/10/06 11:01:42;;;;;;;3.87;1.83;;;10.90;1.00;;;;;;4975763;28;20220;-64
2021/10/06 11:04:11;;;;;;;4.57;1.77;;;10.90;19.20;;;;;;4976305;28;20208;-63
2021/10/06 11:06:39;;;;;;;2.33;1.77;;;10.90;39.60;;;;;;4975396;28;20216;-63
2021/10/06 11:09:54;;;;;;;3.90;2.10;;;10.90;29.00;;;;;;4975990;28;20290;-64
2021/10/06 11:12:28;;;;;;;2.73;1.77;;;11.00;40.60;;;;;;4897186;29;20290;-64
2021/10/06 11:15:32;;;;;;;2.87;1.90;;;11.10;51.80;;;;;;4896597;29;20210;-65
2021/10/06 11:18:38;;;;;;;3.70;1.90;;;11.10;87.50;;;;;;4955492;28;20302;-64
2021/10/06 11:21:08;;;;;;;3.30;1.90;;;11.20;56.20;;;;;;4915267;29;20214;-65
2021/10/06 11:23:54;;;;;;;6.30;1.90;;;11.30;62.40;;;;;;4915382;29;20211;-65
2021/10/06 11:26:33;;;;;;;2.10;1.70;;;11.40;65.00;;;;;;4915196;29;20245;-64
2021/10/06 11:29:03;;;;;;;2.30;1.33;;;11.50;3.30;;;;;;4940733;28;20271;-65
2021/10/06 11:31:32;;;;;;;3.13;1.53;;;11.60;1.00;;;;;;4975537;28;20247;-67
2021/10/06 11:34:00;;;;;;;2.43;1.50;;;11.60;1.00;;;;;;4976936;28;20216;-66
2021/10/06 11:36:28;;;;;;;2.50;1.40;;;11.60;99.90;;;;;;4975426;28;20209;-65
2021/10/06 11:39:04;;;;;;;2.50;1.73;;;11.40;99.90;;;;;;4975265;28;20283;-65
2021/10/06 11:41:31;;;;;;;2.77;1.67;;;11.50;99.90;;;;;;4975263;28;20216;-66
2021/10/06 11:43:58;;;;;;;2.60;1.63;;;11.40;99.90;;;;;;4975203;28;20206;-66
2021/10/06 11:46:29;;;;;;;3.73;1.83;;;11.30;99.90;;;;;;4974977;28;20570;-66
2021/10/06 11:48:57;;;;;;;2.87;1.90;;;11.30;99.90;;;;;;4975019;28;20311;-68
2021/10/06 11:51:39;;;;;;;3.00;2.00;;;11.30;1.00;;;;;;4974857;28;20320;-65
2021/10/06 11:54:06;;;;;;;2.40;2.20;;;11.30;1.00;;;;;;4974945;28;20263;-65
2021/10/06 11:56:33;;;;;;;2.53;2.17;;;11.40;1.00;;;;;;4974399;28;20244;-68
2021/10/06 11:59:08;;;;;;;5.13;2.20;;;11.50;1.00;;;;;;4974851;28;20240;-70
2021/10/06 12:01:36;;;;;;;3.17;2.37;;;11.60;1.00;;;;;;4974391;28;20274;-63
2021/10/06 12:04:14;;;;;;;3.53;2.50;;;11.60;1.00;;;;;;4974860;28;20212;-64
2021/10/06 12:06:43;;;;;;;4.27;2.43;;;11.70;1.00;;;;;;4974499;28;20236;-63
2021/10/06 12:09:10;;;;;;;2.60;1.97;;;11.70;1.00;;;;;;4974426;28;20232;-64
2021/10/06 12:11:39;;;;;;;2.50;2.00;;;11.70;1.00;;;;;;4974522;28;20271;-66
2021/10/06 12:14:20;;;;;;;4.37;2.00;;;11.80;99.90;;;;;;4974653;28;20219;-64
2021/10/06 12:16:56;;;;;;;4.00;2.13;;;11.70;99.90;;;;;;4974238;28;20209;-66
2021/10/06 12:19:25;;;;;;;2.73;2.00;;;11.70;99.90;;;;;;4974111;28;20729;-63
2021/10/06 12:21:52;;;;;;;2.17;1.97;;;11.60;99.90;;;;;;4974632;28;20236;-59
2021/10/06 12:24:21;;;;;;;4.33;2.40;;;11.60;99.90;;;;;;4974422;28;20591;-65
2021/10/06 12:26:49;;;;;;;3.97;2.20;;;11.50;99.90;;;;;;4974180;28;20217;-64
2021/10/06 12:29:20;;;;;;;3.73;2.63;;;11.50;99.90;;;;;;4974100;28;20626;-65
2021/10/06 12:31:46;;;;;;;4.30;2.20;;;11.30;1.00;;;;;;4974074;28;20212;-65
2021/10/06 12:34:19;;;;;;;3.13;2.50;;;11.30;1.00;;;;;;4974363;28;20597;-64
2021/10/06 12:36:49;;;;;;;8.37;3.00;;;11.20;1.00;;;;;;4973753;28;20704;-65
2021/10/06 12:39:17;;;;;;;3.30;2.57;;;11.20;1.00;;;;;;4974225;28;20252;-65
2021/10/06 12:41:51;;;;;;;4.93;2.43;;;11.20;1.00;;;;;;4973803;28;20223;-64
2021/10/06 12:44:24;;;;;;;6.07;2.77;;;11.20;1.00;;;;;;4973850;28;20297;-63
2021/10/06 12:46:52;;;;;;;3.23;2.53;;;11.30;1.00;;;;;;4974074;28;20645;-63
2021/10/06 12:49:19;;;;;;;3.47;2.97;;;11.30;1.00;;;;;;4973716;28;20771;-64
2021/10/06 12:51:55;;;;;;;4.87;2.97;;;11.30;1.00;;;;;;4973725;28;20215;-60
2021/10/06 12:54:24;;;;;;;4.27;3.00;;;11.40;1.00;;;;;;4973684;28;20661;-66
2021/10/06 12:56:53;;;;;;;4.20;2.73;;;11.50;1.00;;;;;;4973282;28;20209;-66